Time,TemperatureF,DewpointF,PressureIn,WindDirection,WindDirectionDegrees,WindSpeedMPH,WindSpeedGustMPH,Humidity,HourlyPrecipIn,Conditions,Clouds,dailyrainin,SoftwareType,DateUTC
2013-02-01 00:01:00,42.5,38.9,29.68,SW,236,16.0,28.0,87,0.00,,---,0.00,VWS V14.00,2013-02-01 00:01:00,
2013-02-01 00:06:00,42.5,38.6,29.67,WSW,246,17.0,19.0,86,0.00,,---,0.00,VWS V14.00,2013-02-01 00:06:00,
2013-02-01 00:12:00,42.5,38.6,29.68,WSW,242,14.0,19.0,86,0.00,,---,0.00,VWS V14.00,2013-02-01 00:12:00,
2013-02-01 00:17:00,42.5,38.6,29.67,South,190,15.0,23.0,86,0.00,,---,0.00,VWS V14.00,2013-02-01 00:17:00,
2013-02-01 00:23:00,42.6,38.7,29.67,SW,235,11.0,19.0,86,0.00,,---,0.00,VWS V14.00,2013-02-01 00:23:00,
2013-02-01 00:28:00,42.6,38.7,29.67,SW,218,22.0,26.0,86,0.00,,---,0.00,VWS V14.00,2013-02-01 00:28:00,
2013-02-01 00:33:00,42.5,38.6,29.67,SW,228,15.0,20.0,86,0.00,,---,0.00,VWS V14.00,2013-02-01 00:33:00,
2013-02-01 00:38:00,42.6,38.7,29.67,SW,217,29.0,29.0,86,0.00,,---,0.00,VWS V14.00,2013-02-01 00:38:00,
2013-02-01 00:44:00,42.7,38.8,29.67,SSW,204,21.0,22.0,86,0.00,,---,0.00,VWS V14.00,2013-02-01 00:44:00,
2013-02-01 00:49:00,42.6,38.7,29.67,SSW,207,19.0,24.0,86,0.00,,---,0.00,VWS V14.00,2013-02-01 00:49:00,
2013-02-01 00:54:00,42.5,38.6,29.66,WSW,240,18.0,22.0,86,0.00,,---,0.00,VWS V14.00,2013-02-01 00:54:00,
2013-02-01 00:59:00,42.7,38.8,29.66,SW,231,14.0,19.0,86,0.00,,---,0.00,VWS V14.00,2013-02-01 00:59:00,
2013-02-01 01:04:00,42.6,38.7,29.66,SW,218,13.0,23.0,86,0.00,,---,0.00,VWS V14.00,2013-02-01 01:04:00,
2013-02-01 01:09:00,42.6,38.7,29.66,SW,229,18.0,26.0,86,0.00,,---,0.00,VWS V14.00,2013-02-01 01:09:00,
2013-02-01 01:14:00,42.4,38.8,29.66,SW,235,16.0,22.0,87,0.00,,---,0.00,VWS V14.00,2013-02-01 01:14:00,
2013-02-01 01:19:00,42.2,38.6,29.65,SW,222,10.0,13.0,87,0.00,,---,0.00,VWS V14.00,2013-02-01 01:19:00,
2013-02-01 01:24:00,42.2,38.6,29.65,SSW,213,11.0,15.0,87,0.00,,---,0.00,VWS V14.00,2013-02-01 01:24:00,
2013-02-01 01:29:00,42.2,38.6,29.65,WSW,245,16.0,16.0,87,0.00,,---,0.00,VWS V14.00,2013-02-01 01:29:00,
2013-02-01 01:35:00,42.3,38.7,29.65,SW,218,13.0,19.0,87,0.00,,---,0.00,VWS V14.00,2013-02-01 01:35:00,
2013-02-01 01:40:00,42.3,38.7,29.65,SW,225,12.0,22.0,87,0.00,,---,0.00,VWS V14.00,2013-02-01 01:40:00,
2013-02-01 01:45:00,42.3,38.7,29.65,WSW,248,12.0,21.0,87,0.00,,---,0.00,VWS V14.00,2013-02-01 01:45:00,
2013-02-01 01:50:00,42.3,38.7,29.65,WSW,238,13.0,19.0,87,0.00,,---,0.00,VWS V14.00,2013-02-01 01:50:00,
2013-02-01 01:56:00,42.3,38.4,29.65,SSW,212,14.0,21.0,86,0.00,,---,0.00,VWS V14.00,2013-02-01 01:56:00,
2013-02-01 02:01:00,42.3,38.4,29.65,WSW,247,18.0,19.0,86,0.00,,---,0.00,VWS V14.00,2013-02-01 02:01:00,
2013-02-01 02:07:00,42.3,38.4,29.64,SSW,210,12.0,19.0,86,0.00,,---,0.00,VWS V14.00,2013-02-01 02:07:00,
2013-02-01 02:12:00,42.3,38.4,29.64,SW,218,20.0,20.0,86,0.00,,---,0.00,VWS V14.00,2013-02-01 02:12:00,
2013-02-01 02:17:00,42.3,38.1,29.64,WSW,241,11.0,20.0,85,0.00,,---,0.00,VWS V14.00,2013-02-01 02:17:00,
2013-02-01 02:23:00,42.2,38.0,29.64,WSW,241,11.0,17.0,85,0.00,,---,0.00,VWS V14.00,2013-02-01 02:23:00,
2013-02-01 02:28:00,42.1,38.2,29.64,SSW,211,9.0,17.0,86,0.00,,---,0.00,VWS V14.00,2013-02-01 02:28:00,
2013-02-01 02:34:00,42.0,38.1,29.64,SW,220,13.0,13.0,86,0.00,,---,0.00,VWS V14.00,2013-02-01 02:34:00,
2013-02-01 02:39:00,42.0,38.1,29.63,SW,217,10.0,15.0,86,0.00,,---,0.00,VWS V14.00,2013-02-01 02:39:00,
2013-02-01 02:44:00,42.0,38.1,29.63,SW,227,11.0,14.0,86,0.00,,---,0.00,VWS V14.00,2013-02-01 02:44:00,
2013-02-01 02:49:00,41.9,38.0,29.62,SSW,208,11.0,16.0,86,0.00,,---,0.00,VWS V14.00,2013-02-01 02:49:00,
2013-02-01 02:55:00,42.0,38.1,29.62,SW,214,18.0,21.0,86,0.00,,---,0.00,VWS V14.00,2013-02-01 02:55:00,
2013-02-01 03:01:00,42.1,38.2,29.62,SSW,208,15.0,15.0,86,0.00,,---,0.00,VWS V14.00,2013-02-01 03:01:00,
2013-02-01 03:07:00,42.0,37.8,29.62,SSW,208,17.0,25.0,85,0.00,,---,0.00,VWS V14.00,2013-02-01 03:07:00,
2013-02-01 03:12:00,42.1,37.9,29.62,SW,228,9.0,17.0,85,0.00,,---,0.00,VWS V14.00,2013-02-01 03:12:00,
2013-02-01 03:17:00,42.0,37.8,29.62,WSW,246,18.0,18.0,85,0.00,,---,0.00,VWS V14.00,2013-02-01 03:17:00,
2013-02-01 03:22:00,42.0,37.8,29.62,SW,218,23.0,26.0,85,0.00,,---,0.00,VWS V14.00,2013-02-01 03:22:00,
2013-02-01 03:27:00,42.0,37.8,29.61,WSW,243,12.0,19.0,85,0.00,,---,0.00,VWS V14.00,2013-02-01 03:27:00,
2013-02-01 03:32:00,42.0,37.8,29.61,SW,225,23.0,23.0,85,0.00,,---,0.00,VWS V14.00,2013-02-01 03:32:00,
2013-02-01 03:37:00,42.2,38.0,29.60,WSW,254,15.0,20.0,85,0.00,,---,0.00,VWS V14.00,2013-02-01 03:37:00,
2013-02-01 03:42:00,42.0,37.8,29.61,WSW,243,13.0,19.0,85,0.00,,---,0.00,VWS V14.00,2013-02-01 03:42:00,
2013-02-01 03:47:00,42.0,37.8,29.60,SW,226,11.0,14.0,85,0.00,,---,0.00,VWS V14.00,2013-02-01 03:47:00,
2013-02-01 03:52:00,41.9,37.7,29.60,WSW,237,17.0,28.0,85,0.00,,---,0.00,VWS V14.00,2013-02-01 03:52:00,
2013-02-01 03:57:00,41.9,37.7,29.60,SSW,207,11.0,15.0,85,0.00,,---,0.00,VWS V14.00,2013-02-01 03:57:00,
2013-02-01 04:02:00,41.7,37.8,29.59,SW,229,10.0,19.0,86,0.00,,---,0.00,VWS V14.00,2013-02-01 04:02:00,
2013-02-01 04:07:00,41.6,37.7,29.59,SW,222,19.0,19.0,86,0.00,,---,0.00,VWS V14.00,2013-02-01 04:07:00,
2013-02-01 04:13:00,41.5,37.6,29.58,SW,228,21.0,24.0,86,0.00,,---,0.00,VWS V14.00,2013-02-01 04:13:00,
2013-02-01 04:18:00,41.5,37.9,29.58,SSW,212,10.0,18.0,87,0.00,,---,0.00,VWS V14.00,2013-02-01 04:18:00,
2013-02-01 04:23:00,41.3,37.7,29.58,SW,220,20.0,21.0,87,0.00,,---,0.00,VWS V14.00,2013-02-01 04:23:00,
2013-02-01 04:28:00,41.2,37.9,29.57,WSW,243,21.0,24.0,88,0.00,,---,0.00,VWS V14.00,2013-02-01 04:28:00,
2013-02-01 04:33:00,41.1,37.8,29.57,WSW,241,21.0,25.0,88,0.00,,---,0.00,VWS V14.00,2013-02-01 04:33:00,
2013-02-01 04:38:00,41.1,37.8,29.57,SW,232,17.0,25.0,88,0.00,,---,0.00,VWS V14.00,2013-02-01 04:38:00,
2013-02-01 04:43:00,41.2,37.9,29.57,WSW,245,19.0,22.0,88,0.00,,---,0.00,VWS V14.00,2013-02-01 04:43:00,
2013-02-01 04:48:00,41.0,37.7,29.56,SW,230,14.0,26.0,88,0.00,,---,0.00,VWS V14.00,2013-02-01 04:48:00,
2013-02-01 04:53:00,40.9,37.9,29.56,SW,227,21.0,28.0,89,0.00,,---,0.00,VWS V14.00,2013-02-01 04:53:00,
2013-02-01 04:58:00,41.1,37.8,29.56,WSW,238,14.0,21.0,88,0.00,,---,0.00,VWS V14.00,2013-02-01 04:58:00,
2013-02-01 05:01:00,41.0,37.7,29.55,SW,218,22.0,26.0,88,0.00,,---,0.00,VWS V14.00,2013-02-01 05:01:00,
2013-02-01 05:04:00,41.0,37.7,29.55,WSW,241,15.0,18.0,88,0.00,,---,0.00,VWS V14.00,2013-02-01 05:04:00,
2013-02-01 05:05:00,41.0,37.7,29.55,SW,232,14.0,19.0,88,0.00,,---,0.00,VWS V14.00,2013-02-01 05:05:00,
2013-02-01 05:10:00,41.0,38.0,29.55,SW,222,13.0,17.0,89,0.00,,---,0.00,VWS V14.00,2013-02-01 05:10:00,
2013-02-01 05:15:00,40.9,37.9,29.55,WSW,244,14.0,24.0,89,0.00,,---,0.00,VWS V14.00,2013-02-01 05:15:00,
2013-02-01 05:20:00,40.9,37.9,29.55,SW,230,19.0,20.0,89,0.00,,---,0.00,VWS V14.00,2013-02-01 05:20:00,
2013-02-01 05:25:00,40.9,37.9,29.55,WSW,254,18.0,20.0,89,0.00,,---,0.00,VWS V14.00,2013-02-01 05:25:00,
2013-02-01 05:30:00,40.8,37.8,29.55,SSW,212,13.0,20.0,89,0.00,,---,0.00,VWS V14.00,2013-02-01 05:30:00,
2013-02-01 05:35:00,40.7,37.7,29.54,SW,236,18.0,26.0,89,0.00,,---,0.00,VWS V14.00,2013-02-01 05:35:00,
2013-02-01 05:40:00,40.6,37.6,29.55,WSW,239,7.0,15.0,89,0.00,,---,0.00,VWS V14.00,2013-02-01 05:40:00,
2013-02-01 05:45:00,40.7,37.7,29.54,SW,225,12.0,19.0,89,0.00,,---,0.00,VWS V14.00,2013-02-01 05:45:00,
2013-02-01 05:50:00,40.7,37.7,29.54,SW,234,13.0,18.0,89,0.00,,---,0.00,VWS V14.00,2013-02-01 05:50:00,
2013-02-01 05:51:00,40.7,37.4,29.54,SW,232,20.0,20.0,88,0.00,,---,0.00,VWS V14.00,2013-02-01 05:51:00,
2013-02-01 05:56:00,40.7,37.4,29.53,SW,220,25.0,25.0,88,0.00,,---,0.00,VWS V14.00,2013-02-01 05:56:00,
2013-02-01 06:01:00,40.7,37.7,29.53,SW,223,10.0,26.0,89,0.00,,---,0.00,VWS V14.00,2013-02-01 06:01:00,
2013-02-01 06:06:00,40.6,37.6,29.54,SW,225,11.0,15.0,89,0.00,,---,0.00,VWS V14.00,2013-02-01 06:06:00,
2013-02-01 06:11:00,40.5,37.5,29.54,SW,233,9.0,12.0,89,0.00,,---,0.00,VWS V14.00,2013-02-01 06:11:00,
2013-02-01 06:16:00,40.4,37.4,29.54,SSW,202,13.0,16.0,89,0.00,,---,0.00,VWS V14.00,2013-02-01 06:16:00,
2013-02-01 06:21:00,40.2,37.2,29.54,SW,236,20.0,20.0,89,0.00,,---,0.00,VWS V14.00,2013-02-01 06:21:00,
2013-02-01 06:26:00,40.1,37.1,29.54,SSW,194,9.0,10.0,89,0.00,,---,0.00,VWS V14.00,2013-02-01 06:26:00,
2013-02-01 06:32:00,40.0,37.3,29.54,SSW,202,7.0,13.0,90,0.00,,---,0.00,VWS V14.00,2013-02-01 06:32:00,
2013-02-01 06:37:00,39.8,37.1,29.54,SW,224,9.0,13.0,90,0.00,,---,0.00,VWS V14.00,2013-02-01 06:37:00,
2013-02-01 06:43:00,39.8,37.1,29.54,SW,221,11.0,11.0,90,0.00,,---,0.00,VWS V14.00,2013-02-01 06:43:00,
2013-02-01 06:48:00,39.8,37.1,29.54,WSW,237,12.0,12.0,90,0.00,,---,0.00,VWS V14.00,2013-02-01 06:48:00,
2013-02-01 06:54:00,39.8,37.1,29.54,SW,222,18.0,18.0,90,0.00,,---,0.00,VWS V14.00,2013-02-01 06:54:00,
2013-02-01 06:59:00,39.9,36.9,29.54,SW,233,14.0,18.0,89,0.00,,---,0.00,VWS V14.00,2013-02-01 06:59:00,
2013-02-01 07:04:00,39.9,36.9,29.54,SSW,208,15.0,21.0,89,0.00,,---,0.00,VWS V14.00,2013-02-01 07:04:00,
2013-02-01 07:10:00,39.9,36.9,29.53,SW,218,12.0,22.0,89,0.00,,---,0.00,VWS V14.00,2013-02-01 07:10:00,
2013-02-01 07:15:00,39.8,36.8,29.53,SW,224,11.0,17.0,89,0.00,,---,0.00,VWS V14.00,2013-02-01 07:15:00,
2013-02-01 07:20:00,39.7,36.7,29.53,SW,225,16.0,19.0,89,0.00,,---,0.00,VWS V14.00,2013-02-01 07:20:00,
2013-02-01 07:26:00,39.6,36.6,29.52,WSW,243,15.0,15.0,89,0.00,,---,0.00,VWS V14.00,2013-02-01 07:26:00,
2013-02-01 07:31:00,39.5,36.5,29.52,SW,216,20.0,20.0,89,0.00,,---,0.00,VWS V14.00,2013-02-01 07:31:00,
2013-02-01 07:36:00,39.6,36.6,29.52,SW,219,20.0,25.0,89,0.00,,---,0.00,VWS V14.00,2013-02-01 07:36:00,
2013-02-01 07:41:00,39.6,36.6,29.52,SW,214,10.0,16.0,89,0.00,,---,0.00,VWS V14.00,2013-02-01 07:41:00,
2013-02-01 07:46:00,39.4,36.4,29.52,SW,225,12.0,14.0,89,0.00,,---,0.00,VWS V14.00,2013-02-01 07:46:00,
2013-02-01 07:51:00,39.4,36.4,29.52,SW,235,15.0,15.0,89,0.00,,---,0.00,VWS V14.00,2013-02-01 07:51:00,
2013-02-01 07:57:00,39.3,36.3,29.52,SW,229,14.0,21.0,89,0.00,,---,0.00,VWS V14.00,2013-02-01 07:57:00,
2013-02-01 08:02:00,39.3,36.3,29.52,WSW,243,17.0,20.0,89,0.00,,---,0.00,VWS V14.00,2013-02-01 08:02:00,
2013-02-01 08:07:00,39.3,36.3,29.52,SSW,208,18.0,21.0,89,0.00,,---,0.00,VWS V14.00,2013-02-01 08:07:00,
2013-02-01 08:13:00,39.3,36.6,29.52,SW,232,16.0,16.0,90,0.00,,---,0.00,VWS V14.00,2013-02-01 08:13:00,
2013-02-01 08:19:00,39.3,36.6,29.51,SW,219,20.0,25.0,90,0.00,,---,0.00,VWS V14.00,2013-02-01 08:19:00,
2013-02-01 08:25:00,39.3,36.6,29.51,SW,228,14.0,24.0,90,0.00,,---,0.00,VWS V14.00,2013-02-01 08:25:00,
2013-02-01 08:31:00,39.3,36.6,29.51,SSW,200,16.0,21.0,90,0.00,,---,0.00,VWS V14.00,2013-02-01 08:31:00,
2013-02-01 08:36:00,39.5,36.8,29.50,WSW,243,22.0,32.0,90,0.00,,---,0.00,VWS V14.00,2013-02-01 08:36:00,
2013-02-01 08:41:00,39.7,37.0,29.50,SW,230,14.0,28.0,90,0.00,,---,0.00,VWS V14.00,2013-02-01 08:41:00,
2013-02-01 08:46:00,39.7,36.7,29.50,SW,225,21.0,24.0,89,0.00,,---,0.00,VWS V14.00,2013-02-01 08:46:00,
2013-02-01 08:51:00,39.8,36.8,29.50,WSW,256,18.0,24.0,89,0.00,,---,0.00,VWS V14.00,2013-02-01 08:51:00,
2013-02-01 08:56:00,39.9,36.9,29.50,WSW,246,20.0,22.0,89,0.00,,---,0.00,VWS V14.00,2013-02-01 08:56:00,
2013-02-01 09:02:00,40.1,37.1,29.50,SW,235,24.0,26.0,89,0.00,,---,0.00,VWS V14.00,2013-02-01 09:02:00,
2013-02-01 09:07:00,40.2,37.2,29.49,SW,219,15.0,16.0,89,0.00,,---,0.00,VWS V14.00,2013-02-01 09:07:00,
2013-02-01 09:12:00,40.3,37.3,29.49,WSW,251,20.0,25.0,89,0.00,,---,0.00,VWS V14.00,2013-02-01 09:12:00,
2013-02-01 09:17:00,40.4,37.4,29.49,SW,235,19.0,23.0,89,0.00,,---,0.00,VWS V14.00,2013-02-01 09:17:00,
2013-02-01 09:22:00,40.5,37.5,29.48,SW,234,13.0,25.0,89,0.00,,---,0.00,VWS V14.00,2013-02-01 09:22:00,
2013-02-01 09:27:00,40.6,37.3,29.48,SW,224,16.0,30.0,88,0.00,,---,0.00,VWS V14.00,2013-02-01 09:27:00,
2013-02-01 09:32:00,40.6,37.3,29.48,WSW,252,23.0,31.0,88,0.00,,---,0.00,VWS V14.00,2013-02-01 09:32:00,
2013-02-01 09:37:00,40.9,37.6,29.47,SW,229,20.0,31.0,88,0.00,,---,0.00,VWS V14.00,2013-02-01 09:37:00,
2013-02-01 09:42:00,40.9,37.6,29.47,SW,235,22.0,27.0,88,0.00,,---,0.00,VWS V14.00,2013-02-01 09:42:00,
2013-02-01 09:47:00,41.1,37.8,29.46,WSW,249,18.0,27.0,88,0.00,,---,0.00,VWS V14.00,2013-02-01 09:47:00,
2013-02-01 09:53:00,41.2,37.9,29.46,SW,228,23.0,32.0,88,0.00,,---,0.00,VWS V14.00,2013-02-01 09:53:00,
2013-02-01 09:59:00,41.5,37.9,29.46,WSW,254,27.0,33.0,87,0.00,,---,0.00,VWS V14.00,2013-02-01 09:59:00,
2013-02-01 10:04:00,41.5,37.9,29.45,SW,224,11.0,20.0,87,0.00,,---,0.00,VWS V14.00,2013-02-01 10:04:00,
2013-02-01 10:09:00,41.4,38.1,29.45,SW,225,24.0,31.0,88,0.00,,---,0.00,VWS V14.00,2013-02-01 10:09:00,
2013-02-01 10:15:00,41.3,38.0,29.44,SW,227,35.0,37.0,88,0.00,,---,0.00,VWS V14.00,2013-02-01 10:15:00,
2013-02-01 10:21:00,41.3,38.0,29.44,SW,225,28.0,28.0,88,0.00,,---,0.00,VWS V14.00,2013-02-01 10:21:00,
2013-02-01 10:26:00,41.4,38.1,29.43,SW,222,24.0,27.0,88,0.00,,---,0.00,VWS V14.00,2013-02-01 10:26:00,
2013-02-01 10:31:00,41.4,38.1,29.44,WSW,241,22.0,27.0,88,0.00,,---,0.00,VWS V14.00,2013-02-01 10:31:00,
2013-02-01 10:36:00,41.5,38.5,29.43,WSW,239,24.0,32.0,89,0.00,,---,0.00,VWS V14.00,2013-02-01 10:36:00,
2013-02-01 10:41:00,41.7,38.4,29.43,SW,229,23.0,30.0,88,0.00,,---,0.00,VWS V14.00,2013-02-01 10:41:00,
2013-02-01 10:46:00,41.9,38.9,29.43,SW,223,26.0,33.0,89,0.00,,---,0.00,VWS V14.00,2013-02-01 10:46:00,
2013-02-01 10:52:00,42.1,38.8,29.43,WSW,247,22.0,32.0,88,0.00,,---,0.00,VWS V14.00,2013-02-01 10:52:00,
2013-02-01 10:58:00,42.1,38.8,29.43,WSW,247,25.0,33.0,88,0.00,,---,0.00,VWS V14.00,2013-02-01 10:58:00,
2013-02-01 11:03:00,42.2,38.9,29.43,SW,219,22.0,29.0,88,0.00,,---,0.00,VWS V14.00,2013-02-01 11:03:00,
2013-02-01 11:09:00,42.1,39.1,29.43,WSW,241,16.0,35.0,89,0.00,,---,0.00,VWS V14.00,2013-02-01 11:09:00,
2013-02-01 11:14:00,42.3,39.3,29.43,SSW,205,16.0,24.0,89,0.00,,---,0.00,VWS V14.00,2013-02-01 11:14:00,
2013-02-01 11:20:00,42.3,39.6,29.43,WSW,246,25.0,36.0,90,0.00,,---,0.00,VWS V14.00,2013-02-01 11:20:00,
2013-02-01 11:25:00,42.2,39.5,29.43,SSW,212,16.0,26.0,90,0.00,,---,0.00,VWS V14.00,2013-02-01 11:25:00,
2013-02-01 11:30:00,42.3,39.6,29.43,SW,234,29.0,29.0,90,0.00,,---,0.00,VWS V14.00,2013-02-01 11:30:00,
2013-02-01 11:35:00,42.4,39.7,29.43,SSW,213,25.0,25.0,90,0.00,,---,0.00,VWS V14.00,2013-02-01 11:35:00,
2013-02-01 11:40:00,42.5,39.8,29.43,WSW,241,17.0,28.0,90,0.00,,---,0.00,VWS V14.00,2013-02-01 11:40:00,
2013-02-01 11:46:00,42.5,40.1,29.43,WSW,256,23.0,25.0,91,0.00,,---,0.00,VWS V14.00,2013-02-01 11:46:00,
2013-02-01 11:52:00,42.6,40.2,29.43,SW,227,18.0,23.0,91,0.00,,---,0.00,VWS V14.00,2013-02-01 11:52:00,
2013-02-01 11:57:00,42.6,40.2,29.43,WSW,254,20.0,25.0,91,0.00,,---,0.00,VWS V14.00,2013-02-01 11:57:00,
2013-02-01 12:02:00,42.7,40.5,29.43,WSW,247,19.0,24.0,92,0.00,,---,0.00,VWS V14.00,2013-02-01 12:02:00,
2013-02-01 12:07:00,42.8,40.6,29.42,WSW,237,31.0,31.0,92,0.00,,---,0.00,VWS V14.00,2013-02-01 12:07:00,
2013-02-01 12:12:00,42.9,40.7,29.43,West,259,22.0,24.0,92,0.00,,---,0.00,VWS V14.00,2013-02-01 12:12:00,
2013-02-01 12:17:00,42.9,41.0,29.43,SW,234,19.0,28.0,93,0.00,,---,0.00,VWS V14.00,2013-02-01 12:17:00,
2013-02-01 12:22:00,42.7,41.1,29.43,West,279,5.0,19.0,94,0.00,,---,0.00,VWS V14.00,2013-02-01 12:22:00,
2013-02-01 12:27:00,42.6,41.0,29.44,West,262,5.0,12.0,94,0.00,,---,0.00,VWS V14.00,2013-02-01 12:27:00,
2013-02-01 12:32:00,42.5,41.2,29.44,WSW,241,17.0,24.0,95,0.00,,---,0.00,VWS V14.00,2013-02-01 12:32:00,
2013-02-01 12:37:00,42.6,41.3,29.44,WSW,249,16.0,21.0,95,0.00,,---,0.00,VWS V14.00,2013-02-01 12:37:00,
2013-02-01 12:42:00,42.6,41.3,29.44,WNW,303,12.0,15.0,95,0.00,,---,0.00,VWS V14.00,2013-02-01 12:42:00,
2013-02-01 12:47:00,42.8,41.5,29.44,SW,233,11.0,16.0,95,0.00,,---,0.00,VWS V14.00,2013-02-01 12:47:00,
2013-02-01 12:53:00,42.9,41.6,29.44,WSW,252,11.0,19.0,95,0.00,,---,0.00,VWS V14.00,2013-02-01 12:53:00,
2013-02-01 12:58:00,43.1,41.8,29.45,West,268,17.0,22.0,95,0.00,,---,0.00,VWS V14.00,2013-02-01 12:58:00,
2013-02-01 13:03:00,43.2,41.6,29.45,West,262,16.0,26.0,94,0.00,,---,0.00,VWS V14.00,2013-02-01 13:03:00,
2013-02-01 13:08:00,43.3,40.8,29.45,WNW,296,17.0,26.0,91,0.00,,---,0.00,VWS V14.00,2013-02-01 13:08:00,
2013-02-01 13:13:00,43.3,40.0,29.45,WNW,286,18.0,20.0,88,0.00,,---,0.00,VWS V14.00,2013-02-01 13:13:00,
2013-02-01 13:18:00,43.2,39.6,29.46,West,281,8.0,20.0,87,0.00,,---,0.00,VWS V14.00,2013-02-01 13:18:00,
2013-02-01 13:23:00,43.1,39.2,29.47,WNW,293,18.0,29.0,86,0.01,,---,0.01,VWS V14.00,2013-02-01 13:23:00,
2013-02-01 13:28:00,42.9,39.3,29.47,West,279,17.0,23.0,87,0.01,,---,0.01,VWS V14.00,2013-02-01 13:28:00,
2013-02-01 13:34:00,42.7,39.4,29.47,WSW,256,13.0,29.0,88,0.01,,---,0.01,VWS V14.00,2013-02-01 13:34:00,
2013-02-01 13:39:00,42.4,38.8,29.48,WNW,285,21.0,22.0,87,0.01,,---,0.01,VWS V14.00,2013-02-01 13:39:00,
2013-02-01 13:44:00,42.4,38.8,29.49,WNW,283,12.0,24.0,87,0.01,,---,0.01,VWS V14.00,2013-02-01 13:44:00,
2013-02-01 13:49:00,42.3,39.0,29.49,WNW,283,24.0,33.0,88,0.01,,---,0.01,VWS V14.00,2013-02-01 13:49:00,
2013-02-01 13:55:00,42.4,39.1,29.50,WNW,295,11.0,20.0,88,0.01,,---,0.01,VWS V14.00,2013-02-01 13:55:00,
2013-02-01 14:01:00,42.4,39.1,29.50,NW,314,17.0,25.0,88,0.01,,---,0.01,VWS V14.00,2013-02-01 14:01:00,
2013-02-01 14:06:00,42.5,39.2,29.50,NW,306,12.0,20.0,88,0.01,,---,0.01,VWS V14.00,2013-02-01 14:06:00,
2013-02-01 14:11:00,42.6,39.3,29.51,NW,304,14.0,16.0,88,0.01,,---,0.01,VWS V14.00,2013-02-01 14:11:00,
2013-02-01 14:16:00,42.7,39.1,29.51,WNW,297,12.0,23.0,87,0.01,,---,0.01,VWS V14.00,2013-02-01 14:16:00,
2013-02-01 14:22:00,42.8,38.9,29.51,West,272,17.0,22.0,86,0.01,,---,0.01,VWS V14.00,2013-02-01 14:22:00,
2013-02-01 14:27:00,42.9,39.0,29.51,WSW,240,13.0,27.0,86,0.00,,---,0.01,VWS V14.00,2013-02-01 14:27:00,
2013-02-01 14:32:00,43.0,38.8,29.51,WNW,299,18.0,26.0,85,0.00,,---,0.01,VWS V14.00,2013-02-01 14:32:00,
2013-02-01 14:37:00,43.1,39.2,29.52,WNW,285,14.0,17.0,86,0.00,,---,0.01,VWS V14.00,2013-02-01 14:37:00,
2013-02-01 14:42:00,43.2,39.3,29.52,NW,320,15.0,20.0,86,0.00,,---,0.01,VWS V14.00,2013-02-01 14:42:00,
2013-02-01 14:47:00,43.1,38.9,29.52,WNW,287,21.0,26.0,85,0.00,,---,0.01,VWS V14.00,2013-02-01 14:47:00,
2013-02-01 14:52:00,42.9,39.0,29.53,SW,221,22.0,22.0,86,0.00,,---,0.01,VWS V14.00,2013-02-01 14:52:00,
2013-02-01 14:58:00,42.5,39.2,29.53,WNW,293,20.0,25.0,88,0.00,,---,0.01,VWS V14.00,2013-02-01 14:58:00,
2013-02-01 15:03:00,42.1,39.4,29.53,WNW,293,15.0,17.0,90,0.00,,---,0.01,VWS V14.00,2013-02-01 15:03:00,
2013-02-01 15:08:00,41.9,39.5,29.53,West,274,12.0,16.0,91,0.00,,---,0.01,VWS V14.00,2013-02-01 15:08:00,
2013-02-01 15:13:00,41.9,39.5,29.54,WNW,295,14.0,14.0,91,0.00,,---,0.01,VWS V14.00,2013-02-01 15:13:00,
2013-02-01 15:18:00,41.9,39.2,29.54,WNW,293,12.0,16.0,90,0.00,,---,0.01,VWS V14.00,2013-02-01 15:18:00,
2013-02-01 15:23:00,42.0,39.3,29.54,West,275,15.0,22.0,90,0.00,,---,0.01,VWS V14.00,2013-02-01 15:23:00,
2013-02-01 15:29:00,42.0,39.0,29.55,WNW,301,15.0,21.0,89,0.00,,---,0.01,VWS V14.00,2013-02-01 15:29:00,
2013-02-01 15:34:00,41.7,39.0,29.55,WNW,288,25.0,29.0,90,0.00,,---,0.01,VWS V14.00,2013-02-01 15:34:00,
2013-02-01 15:40:00,41.5,38.8,29.55,West,278,15.0,18.0,90,0.00,,---,0.01,VWS V14.00,2013-02-01 15:40:00,
2013-02-01 15:45:00,41.6,38.9,29.56,NW,322,13.0,25.0,90,0.00,,---,0.01,VWS V14.00,2013-02-01 15:45:00,
2013-02-01 15:51:00,41.7,38.7,29.56,NNW,340,16.0,20.0,89,0.00,,---,0.01,VWS V14.00,2013-02-01 15:51:00,
2013-02-01 15:57:00,41.8,38.8,29.57,NW,304,13.0,16.0,89,0.00,,---,0.01,VWS V14.00,2013-02-01 15:57:00,
2013-02-01 16:02:00,41.8,38.8,29.57,WNW,286,26.0,28.0,89,0.00,,---,0.01,VWS V14.00,2013-02-01 16:02:00,
2013-02-01 16:07:00,41.8,38.2,29.57,WNW,288,16.0,24.0,87,0.00,,---,0.01,VWS V14.00,2013-02-01 16:07:00,
2013-02-01 16:12:00,41.9,38.3,29.58,WNW,294,24.0,24.0,87,0.00,,---,0.01,VWS V14.00,2013-02-01 16:12:00,
2013-02-01 16:17:00,41.9,38.3,29.58,NW,309,18.0,22.0,87,0.00,,---,0.01,VWS V14.00,2013-02-01 16:17:00,
2013-02-01 16:23:00,41.9,38.0,29.58,NW,312,20.0,20.0,86,0.00,,---,0.01,VWS V14.00,2013-02-01 16:23:00,
2013-02-01 16:29:00,42.0,38.1,29.58,WNW,285,27.0,27.0,86,0.00,,---,0.01,VWS V14.00,2013-02-01 16:29:00,
2013-02-01 16:34:00,42.0,37.8,29.58,WNW,291,17.0,19.0,85,0.00,,---,0.01,VWS V14.00,2013-02-01 16:34:00,
2013-02-01 16:39:00,42.0,38.1,29.59,NW,321,15.0,27.0,86,0.00,,---,0.01,VWS V14.00,2013-02-01 16:39:00,
2013-02-01 16:44:00,41.9,38.0,29.59,WNW,294,13.0,30.0,86,0.00,,---,0.01,VWS V14.00,2013-02-01 16:44:00,
2013-02-01 16:49:00,41.8,38.2,29.60,WNW,289,12.0,17.0,87,0.00,,---,0.01,VWS V14.00,2013-02-01 16:49:00,
2013-02-01 16:54:00,41.9,38.0,29.60,NW,306,22.0,25.0,86,0.00,,---,0.01,VWS V14.00,2013-02-01 16:54:00,
2013-02-01 16:59:00,42.1,37.9,29.61,NW,313,21.0,21.0,85,0.01,,---,0.02,VWS V14.00,2013-02-01 16:59:00,
2013-02-01 17:04:00,42.2,37.7,29.61,WNW,286,23.0,26.0,84,0.01,,---,0.02,VWS V14.00,2013-02-01 17:04:00,
2013-02-01 17:09:00,42.2,38.3,29.61,NW,307,15.0,27.0,86,0.01,,---,0.02,VWS V14.00,2013-02-01 17:09:00,
2013-02-01 17:14:00,42.0,37.8,29.62,West,272,13.0,23.0,85,0.01,,---,0.02,VWS V14.00,2013-02-01 17:14:00,
2013-02-01 17:19:00,42.0,37.5,29.62,WNW,301,30.0,30.0,84,0.01,,---,0.02,VWS V14.00,2013-02-01 17:19:00,
2013-02-01 17:24:00,42.2,37.4,29.63,NNW,328,18.0,26.0,83,0.02,,---,0.02,VWS V14.00,2013-02-01 17:24:00,
2013-02-01 17:29:00,42.2,37.4,29.64,West,276,22.0,22.0,83,0.02,,---,0.02,VWS V14.00,2013-02-01 17:29:00,
2013-02-01 17:34:00,42.2,37.4,29.64,WNW,291,19.0,22.0,83,0.02,,---,0.02,VWS V14.00,2013-02-01 17:34:00,
2013-02-01 17:39:00,42.2,37.1,29.65,NW,324,17.0,20.0,82,0.02,,---,0.02,VWS V14.00,2013-02-01 17:39:00,
2013-02-01 17:44:00,42.2,37.1,29.65,NW,320,12.0,16.0,82,0.02,,---,0.02,VWS V14.00,2013-02-01 17:44:00,
2013-02-01 17:49:00,42.1,37.0,29.66,WNW,297,7.0,17.0,82,0.02,,---,0.02,VWS V14.00,2013-02-01 17:49:00,
2013-02-01 17:55:00,42.1,37.0,29.66,WNW,301,15.0,22.0,82,0.02,,---,0.02,VWS V14.00,2013-02-01 17:55:00,
2013-02-01 18:03:00,42.0,37.5,29.67,NW,317,19.0,22.0,84,0.01,,---,0.02,VWS V14.00,2013-02-01 18:03:00,
2013-02-01 18:09:00,41.9,37.4,29.68,NW,305,24.0,24.0,84,0.01,,---,0.02,VWS V14.00,2013-02-01 18:09:00,
2013-02-01 18:14:00,41.9,37.4,29.68,WNW,297,11.0,23.0,84,0.01,,---,0.02,VWS V14.00,2013-02-01 18:14:00,
2013-02-01 18:19:00,41.8,37.3,29.68,WNW,284,21.0,24.0,84,0.01,,---,0.02,VWS V14.00,2013-02-01 18:19:00,
2013-02-01 18:27:00,41.8,37.0,29.69,NW,318,16.0,24.0,83,0.00,,---,0.02,VWS V14.00,2013-02-01 18:27:00,
2013-02-01 18:34:00,41.7,36.9,29.69,WNW,301,23.0,23.0,83,0.00,,---,0.02,VWS V14.00,2013-02-01 18:34:00,
2013-02-01 18:39:00,41.5,36.7,29.70,WNW,291,11.0,24.0,83,0.00,,---,0.02,VWS V14.00,2013-02-01 18:39:00,
2013-02-01 18:45:00,41.3,36.5,29.71,WNW,290,19.0,22.0,83,0.00,,---,0.02,VWS V14.00,2013-02-01 18:45:00,
2013-02-01 18:50:00,41.2,36.7,29.71,WNW,301,19.0,24.0,84,0.00,,---,0.02,VWS V14.00,2013-02-01 18:50:00,
2013-02-01 18:55:00,41.1,36.6,29.71,WNW,300,19.0,24.0,84,0.00,,---,0.02,VWS V14.00,2013-02-01 18:55:00,
2013-02-01 19:00:00,41.0,36.2,29.72,West,274,32.0,32.0,83,0.00,,---,0.02,VWS V14.00,2013-02-01 19:00:00,
2013-02-01 19:05:00,41.0,36.2,29.72,WNW,303,11.0,21.0,83,0.00,,---,0.02,VWS V14.00,2013-02-01 19:05:00,
2013-02-01 19:10:00,40.9,36.1,29.72,WNW,298,18.0,22.0,83,0.00,,---,0.02,VWS V14.00,2013-02-01 19:10:00,
2013-02-01 19:16:00,40.7,36.0,29.73,NW,314,14.0,21.0,83,0.00,,---,0.02,VWS V14.00,2013-02-01 19:16:00,
2013-02-01 19:22:00,40.4,35.7,29.73,WNW,290,16.0,19.0,83,0.00,,---,0.02,VWS V14.00,2013-02-01 19:22:00,
2013-02-01 19:28:00,40.3,35.6,29.74,WNW,301,18.0,18.0,83,0.00,,---,0.02,VWS V14.00,2013-02-01 19:28:00,
2013-02-01 19:33:00,40.1,35.4,29.74,WNW,286,14.0,15.0,83,0.00,,---,0.02,VWS V14.00,2013-02-01 19:33:00,
2013-02-01 19:38:00,40.0,35.3,29.75,WNW,303,19.0,19.0,83,0.00,,---,0.02,VWS V14.00,2013-02-01 19:38:00,
2013-02-01 19:43:00,39.9,35.2,29.75,NW,306,14.0,22.0,83,0.00,,---,0.02,VWS V14.00,2013-02-01 19:43:00,
2013-02-01 19:48:00,39.8,35.1,29.75,WNW,301,12.0,14.0,83,0.00,,---,0.02,VWS V14.00,2013-02-01 19:48:00,
2013-02-01 19:53:00,39.8,35.1,29.75,NW,304,12.0,15.0,83,0.00,,---,0.02,VWS V14.00,2013-02-01 19:53:00,
2013-02-01 19:58:00,39.8,35.1,29.75,WNW,303,16.0,18.0,83,0.00,,---,0.02,VWS V14.00,2013-02-01 19:58:00,
2013-02-01 20:03:00,39.7,35.0,29.76,West,277,15.0,26.0,83,0.00,,---,0.02,VWS V14.00,2013-02-01 20:03:00,
2013-02-01 20:09:00,39.7,35.3,29.76,WNW,294,19.0,31.0,84,0.00,,---,0.02,VWS V14.00,2013-02-01 20:09:00,
2013-02-01 20:14:00,39.8,35.1,29.77,NW,311,17.0,18.0,83,0.00,,---,0.02,VWS V14.00,2013-02-01 20:14:00,
2013-02-01 20:19:00,39.8,35.1,29.77,WNW,295,17.0,18.0,83,0.00,,---,0.02,VWS V14.00,2013-02-01 20:19:00,
2013-02-01 20:24:00,39.7,35.0,29.78,NW,310,19.0,23.0,83,0.00,,---,0.02,VWS V14.00,2013-02-01 20:24:00,
2013-02-01 20:29:00,39.7,35.0,29.78,NW,308,13.0,25.0,83,0.00,,---,0.02,VWS V14.00,2013-02-01 20:29:00,
2013-02-01 20:34:00,39.6,34.9,29.79,WNW,300,10.0,14.0,83,0.00,,---,0.02,VWS V14.00,2013-02-01 20:34:00,
2013-02-01 20:39:00,39.6,34.9,29.79,WNW,291,14.0,17.0,83,0.00,,---,0.02,VWS V14.00,2013-02-01 20:39:00,
2013-02-01 20:44:00,39.5,34.8,29.79,WNW,286,6.0,10.0,83,0.00,,---,0.02,VWS V14.00,2013-02-01 20:44:00,
2013-02-01 20:49:00,39.2,34.5,29.80,NW,304,11.0,12.0,83,0.00,,---,0.02,VWS V14.00,2013-02-01 20:49:00,
2013-02-01 20:54:00,38.9,34.5,29.80,West,261,9.0,12.0,84,0.00,,---,0.02,VWS V14.00,2013-02-01 20:54:00,
2013-02-01 20:59:00,38.7,34.3,29.80,WNW,285,15.0,15.0,84,0.00,,---,0.02,VWS V14.00,2013-02-01 20:59:00,
2013-02-01 21:04:00,38.5,34.4,29.80,West,259,11.0,12.0,85,0.00,,---,0.02,VWS V14.00,2013-02-01 21:04:00,
2013-02-01 21:09:00,38.3,34.2,29.81,WNW,295,11.0,13.0,85,0.00,,---,0.02,VWS V14.00,2013-02-01 21:09:00,
2013-02-01 21:14:00,38.2,34.1,29.81,West,280,7.0,7.0,85,0.00,,---,0.02,VWS V14.00,2013-02-01 21:14:00,
2013-02-01 21:19:00,38.1,34.0,29.81,West,275,12.0,20.0,85,0.00,,---,0.02,VWS V14.00,2013-02-01 21:19:00,
2013-02-01 21:24:00,38.0,33.9,29.81,West,266,6.0,9.0,85,0.00,,---,0.02,VWS V14.00,2013-02-01 21:24:00,
2013-02-01 21:29:00,38.0,33.6,29.82,NW,312,19.0,19.0,84,0.00,,---,0.02,VWS V14.00,2013-02-01 21:29:00,
2013-02-01 21:34:00,38.0,33.6,29.82,WNW,298,17.0,19.0,84,0.00,,---,0.02,VWS V14.00,2013-02-01 21:34:00,
2013-02-01 21:39:00,38.3,33.6,29.82,WNW,286,11.0,14.0,83,0.00,,---,0.02,VWS V14.00,2013-02-01 21:39:00,
2013-02-01 21:44:00,38.4,33.7,29.83,West,277,17.0,17.0,83,0.00,,---,0.02,VWS V14.00,2013-02-01 21:44:00,
2013-02-01 21:49:00,38.5,33.5,29.83,WNW,297,24.0,27.0,82,0.00,,---,0.02,VWS V14.00,2013-02-01 21:49:00,
2013-02-01 21:54:00,38.5,33.2,29.84,WNW,284,14.0,18.0,81,0.00,,---,0.02,VWS V14.00,2013-02-01 21:54:00,
2013-02-01 21:59:00,38.5,33.2,29.84,NW,304,15.0,18.0,81,0.00,,---,0.02,VWS V14.00,2013-02-01 21:59:00,
2013-02-01 22:04:00,38.4,33.1,29.85,WNW,292,12.0,15.0,81,0.00,,---,0.02,VWS V14.00,2013-02-01 22:04:00,
2013-02-01 22:09:00,38.3,33.0,29.85,West,277,5.0,17.0,81,0.00,,---,0.02,VWS V14.00,2013-02-01 22:09:00,
2013-02-01 22:15:00,38.1,32.8,29.85,WNW,293,11.0,11.0,81,0.00,,---,0.02,VWS V14.00,2013-02-01 22:15:00,
2013-02-01 22:20:00,38.0,32.7,29.86,WNW,283,5.0,10.0,81,0.00,,---,0.02,VWS V14.00,2013-02-01 22:20:00,
2013-02-01 22:25:00,37.9,32.6,29.86,WNW,285,9.0,10.0,81,0.00,,---,0.02,VWS V14.00,2013-02-01 22:25:00,
2013-02-01 22:30:00,37.7,32.4,29.87,West,268,7.0,11.0,81,0.00,,---,0.02,VWS V14.00,2013-02-01 22:30:00,
2013-02-01 22:36:00,37.4,32.1,29.87,West,264,5.0,10.0,81,0.00,,---,0.02,VWS V14.00,2013-02-01 22:36:00,
2013-02-01 22:41:00,37.2,32.2,29.87,West,264,10.0,10.0,82,0.00,,---,0.02,VWS V14.00,2013-02-01 22:41:00,
2013-02-01 22:46:00,37.1,32.1,29.87,West,260,14.0,14.0,82,0.00,,---,0.02,VWS V14.00,2013-02-01 22:46:00,
2013-02-01 22:51:00,37.0,32.0,29.87,WSW,256,6.0,12.0,82,0.00,,---,0.02,VWS V14.00,2013-02-01 22:51:00,
2013-02-01 22:56:00,36.9,32.2,29.87,West,263,6.0,10.0,83,0.00,,---,0.02,VWS V14.00,2013-02-01 22:56:00,
2013-02-01 23:01:00,36.9,32.2,29.88,West,261,11.0,11.0,83,0.00,,---,0.02,VWS V14.00,2013-02-01 23:01:00,
2013-02-01 23:06:00,36.7,32.0,29.88,WSW,248,10.0,13.0,83,0.00,,---,0.02,VWS V14.00,2013-02-01 23:06:00,
2013-02-01 23:11:00,36.6,31.9,29.88,West,259,10.0,12.0,83,0.00,,---,0.02,VWS V14.00,2013-02-01 23:11:00,
2013-02-01 23:16:00,36.5,31.8,29.89,WSW,249,9.0,13.0,83,0.00,,---,0.02,VWS V14.00,2013-02-01 23:16:00,
2013-02-01 23:21:00,36.4,32.0,29.89,WSW,247,11.0,15.0,84,0.00,,---,0.02,VWS V14.00,2013-02-01 23:21:00,
2013-02-01 23:26:00,36.2,31.8,29.89,WNW,284,15.0,15.0,84,0.00,,---,0.02,VWS V14.00,2013-02-01 23:26:00,
2013-02-01 23:31:00,36.1,31.7,29.89,WSW,255,12.0,17.0,84,0.00,,---,0.02,VWS V14.00,2013-02-01 23:31:00,
2013-02-01 23:37:00,36.1,31.7,29.90,West,270,14.0,17.0,84,0.00,,---,0.02,VWS V14.00,2013-02-01 23:37:00,
2013-02-01 23:42:00,36.0,31.6,29.90,WSW,258,11.0,12.0,84,0.00,,---,0.02,VWS V14.00,2013-02-01 23:42:00,
2013-02-01 23:47:00,35.9,31.8,29.90,West,279,9.0,10.0,85,0.00,,---,0.02,VWS V14.00,2013-02-01 23:47:00,
2013-02-01 23:52:00,35.7,31.6,29.91,West,266,6.0,13.0,85,0.00,,---,0.02,VWS V14.00,2013-02-01 23:52:00,
2013-02-01 23:58:00,35.7,31.6,29.91,West,269,7.0,14.0,85,0.00,,---,0.02,VWS V14.00,2013-02-01 23:58:00,